Terminal Aerodrome Forecast
Issued by NWS Atlanta, GA

Home | Current Version | Previous Version | Text Only | Print | Product List | Glossary On
Versions: 1 2 3 4 5 6 7 8 9 10 11 12 13 14 15 16 17 18 19 20 21 22 23 24 25 26 27 28 29 30 31 32 33 34 35 36 37 38
021
FTUS42 KFFC 301734
TAFATL
TAF
KATL 301734Z 3018/0124 20012G20KT P6SM VCSH BKN050
      TEMPO 3018/3020 3SM TSRA BR BKN035CB
     FM302000 17012G20KT P6SM VCSH BKN050
     FM010000 17008KT 5SM -TSRA BR BKN030CB
     FM010400 17005KT P6SM SCT060 BKN250
     FM010900 21006KT P6SM BKN015
     FM011400 23009KT P6SM VCSH BKN025
     FM011700 23010KT 6SM -SHRA BKN035 PROB30 0118/0122 3SM TSRA BR
      BKN025CB=

USA.gov is the U.S. government's official web portal to all federal, state and local government web resources and services.